Time;durP1;ratioP1;P1;durP2;ratioP2;P2;SDS_P1;SDS_P2;PMS_P1;PMS_P2;Temp;Humidity;BMP_temperature;BMP_pressure;BME280_temperature;BME280_humidity;BME280_pressure;Samples;Min_cycle;Max_cycle;Signal;HPM_P1;HPM_P2
2023/04/14 00:00:31;;;;;;;9.18;3.38;;;4.10;99.90;;;;;;5109997;28;20373;-84
2023/04/14 00:02:57;;;;;;;7.78;3.30;;;4.00;99.90;;;;;;5109134;27;20458;-84
2023/04/14 00:05:26;;;;;;;12.95;3.45;;;4.00;99.90;;;;;;5110505;28;20094;-84
2023/04/14 00:07:52;;;;;;;9.95;3.70;;;4.00;99.90;;;;;;5107876;28;20050;-84
2023/04/14 00:10:18;;;;;;;9.50;3.72;;;3.90;99.90;;;;;;5108241;28;20047;-84
2023/04/14 00:12:44;;;;;;;11.95;4.25;;;3.90;99.90;;;;;;5108056;28;20047;-84
2023/04/14 00:15:10;;;;;;;4.85;3.45;;;3.90;99.90;;;;;;5093394;28;20042;-84
2023/04/14 00:17:35;;;;;;;8.82;3.42;;;3.80;99.90;;;;;;5109645;27;20613;-83
2023/04/14 00:20:02;;;;;;;5.97;3.75;;;3.80;99.90;;;;;;5097406;27;20047;-83
2023/04/14 00:22:28;;;;;;;6.25;3.80;;;3.70;99.90;;;;;;5096441;28;20400;-83
2023/04/14 00:24:54;;;;;;;6.97;3.47;;;3.70;99.90;;;;;;5111566;27;20035;-83
2023/04/14 00:27:19;;;;;;;8.20;2.90;;;3.70;99.90;;;;;;5112723;28;20401;-83
2023/04/14 00:29:45;;;;;;;6.95;3.22;;;3.60;99.90;;;;;;5093611;28;20040;-83
2023/04/14 00:32:11;;;;;;;7.50;3.05;;;3.60;99.90;;;;;;5093038;28;20047;-83
2023/04/14 00:34:36;;;;;;;5.95;2.85;;;3.60;99.90;;;;;;5094634;28;20411;-83
2023/04/14 00:37:02;;;;;;;5.03;2.95;;;3.60;99.90;;;;;;5077307;28;20055;-83
2023/04/14 00:39:27;;;;;;;5.95;3.10;;;3.50;99.90;;;;;;5111451;27;20142;-83
2023/04/14 00:41:53;;;;;;;5.55;3.55;;;3.50;99.90;;;;;;5113629;27;20054;-83
2023/04/14 00:44:19;;;;;;;5.88;3.58;;;3.40;99.90;;;;;;5133146;27;20066;-83
2023/04/14 00:46:44;;;;;;;8.77;3.30;;;3.40;99.90;;;;;;5095285;28;20047;-83
2023/04/14 00:49:10;;;;;;;8.25;3.05;;;3.40;99.90;;;;;;5109811;27;20051;-82
2023/04/14 00:51:36;;;;;;;8.77;3.40;;;3.40;99.90;;;;;;5113957;27;20122;-83
2023/04/14 00:54:04;;;;;;;6.47;3.35;;;3.30;99.90;;;;;;5101607;27;20043;-83
2023/04/14 00:56:30;;;;;;;7.30;3.55;;;3.30;99.90;;;;;;5113980;27;20058;-83
2023/04/14 00:58:59;;;;;;;8.00;3.13;;;3.30;99.90;;;;;;5131265;27;20035;-83
2023/04/14 01:01:27;;;;;;;7.07;3.28;;;3.30;99.90;;;;;;5112697;27;20103;-83
2023/04/14 01:03:52;;;;;;;5.43;3.33;;;3.20;99.90;;;;;;5093289;27;20043;-83
2023/04/14 01:06:18;;;;;;;7.68;3.50;;;3.20;99.90;;;;;;5113123;27;20031;-83
2023/04/14 01:08:44;;;;;;;4.95;2.85;;;3.20;99.90;;;;;;5131767;27;20097;-84
2023/04/14 01:11:20;;;;;;;6.00;3.80;;;3.10;99.90;;;;;;5132329;27;20043;-84
2023/04/14 01:13:56;;;;;;;6.13;3.35;;;3.20;99.90;;;;;;5132040;27;20122;-84
2023/04/14 01:16:30;;;;;;;5.25;3.40;;;3.10;99.90;;;;;;5132454;27;20043;-84
2023/04/14 01:19:23;;;;;;;10.10;4.47;;;3.10;99.90;;;;;;5130052;27;20047;-83
2023/04/14 01:21:55;;;;;;;4.50;3.17;;;3.10;99.90;;;;;;5112850;27;20043;-84
2023/04/14 01:24:39;;;;;;;7.72;3.72;;;3.10;99.90;;;;;;5092770;28;20048;-83
2023/04/14 01:27:42;;;;;;;9.55;3.65;;;3.00;99.90;;;;;;5092912;28;20052;-83
2023/04/14 01:30:34;;;;;;;4.70;2.90;;;3.00;99.90;;;;;;5104400;27;20362;-83
2023/04/14 01:33:04;;;;;;;6.53;3.40;;;3.00;99.90;;;;;;5126156;27;20055;-83
2023/04/14 01:35:37;;;;;;;4.78;3.30;;;3.00;99.90;;;;;;5126276;27;20077;-83
2023/04/14 01:38:08;;;;;;;;;;;3.00;99.90;;;;;;5112425;27;20051;-83
2023/04/14 01:40:36;;;;;;;6.78;3.22;;;3.10;99.90;;;;;;5111969;27;20433;-82
2023/04/14 01:43:07;;;;;;;7.03;3.17;;;3.10;99.90;;;;;;5112032;27;20133;-83
2023/04/14 01:45:40;;;;;;;6.85;3.30;;;3.10;99.90;;;;;;5131005;27;20062;-83
2023/04/14 01:48:07;;;;;;;4.68;2.92;;;3.10;99.90;;;;;;5123735;27;20031;-83
2023/04/14 01:50:35;;;;;;;6.88;3.58;;;3.20;99.90;;;;;;5094349;27;20046;-84
2023/04/14 01:53:04;;;;;;;6.00;3.22;;;3.20;99.90;;;;;;5130232;27;20051;-84
2023/04/14 01:55:32;;;;;;;7.40;3.72;;;3.30;99.90;;;;;;5112156;27;20120;-84
2023/04/14 01:57:58;;;;;;;7.65;3.05;;;3.30;99.90;;;;;;5111766;27;20038;-83
2023/04/14 02:00:25;;;;;;;4.65;2.88;;;3.40;99.90;;;;;;5110885;27;20786;-83
2023/04/14 02:02:52;;;;;;;6.47;3.42;;;3.40;99.90;;;;;;5106257;28;20047;-83
2023/04/14 02:05:20;;;;;;;5.25;3.10;;;3.50;99.90;;;;;;5106519;27;20433;-83
2023/04/14 02:07:47;;;;;;;6.72;3.33;;;3.50;99.90;;;;;;5109995;27;20043;-83
2023/04/14 02:10:15;;;;;;;5.15;3.63;;;3.50;99.90;;;;;;5129307;27;20050;-83
2023/04/14 02:12:43;;;;;;;8.73;3.67;;;3.60;99.90;;;;;;5108614;27;20053;-83
2023/04/14 02:15:12;;;;;;;6.28;3.60;;;3.60;99.90;;;;;;5097634;27;20131;-83
2023/04/14 02:17:39;;;;;;;4.88;4.07;;;3.70;99.90;;;;;;5109805;27;20511;-84
2023/04/14 02:20:08;;;;;;;6.28;3.08;;;3.70;99.90;;;;;;5119685;27;20138;-84
2023/04/14 02:22:34;;;;;;;6.07;3.22;;;3.70;99.90;;;;;;5110895;27;20484;-84
2023/04/14 02:25:00;;;;;;;6.43;3.20;;;3.80;99.90;;;;;;5111766;27;20133;-84
2023/04/14 02:27:34;;;;;;;4.00;3.00;;;3.80;99.90;;;;;;5110554;27;20618;-83
2023/04/14 02:30:10;;;;;;;5.57;2.58;;;3.80;99.90;;;;;;5111629;27;20118;-84
2023/04/14 02:32:38;;;;;;;6.15;3.30;;;3.90;99.90;;;;;;5108758;27;20044;-84
2023/04/14 02:35:10;;;;;;;7.72;3.60;;;3.90;99.90;;;;;;5129417;27;20105;-84
2023/04/14 02:37:40;;;;;;;7.18;3.60;;;4.00;99.90;;;;;;5129628;27;20047;-84
2023/04/14 02:40:20;;;;;;;7.47;3.40;;;4.00;99.90;;;;;;5094522;27;20560;-83
2023/04/14 02:42:54;;;;;;;4.68;3.22;;;4.00;99.90;;;;;;5110342;27;20050;-83
2023/04/14 02:45:24;;;;;;;7.15;3.42;;;4.00;99.90;;;;;;5110229;27;20038;-83
2023/04/14 02:47:55;;;;;;;5.95;3.22;;;4.10;99.90;;;;;;5103842;28;20542;-83
2023/04/14 02:50:22;;;;;;;7.65;3.17;;;4.20;99.90;;;;;;5102794;27;20043;-83
2023/04/14 02:52:50;;;;;;;5.80;3.35;;;4.20;99.90;;;;;;5110205;27;20093;-83
2023/04/14 02:55:18;;;;;;;5.20;3.00;;;4.20;99.90;;;;;;5111013;27;20091;-84
2023/04/14 02:57:49;;;;;;;6.40;3.75;;;4.30;99.90;;;;;;5128339;27;20054;-84
2023/04/14 03:00:15;;;;;;;5.95;3.00;;;4.20;99.90;;;;;;5128769;27;20066;-84
2023/04/14 03:02:43;;;;;;;3.92;3.08;;;4.30;99.90;;;;;;5101218;28;20078;-83
2023/04/14 03:05:10;;;;;;;5.68;3.38;;;4.30;99.90;;;;;;5103544;27;20400;-83
2023/04/14 03:07:37;;;;;;;6.88;3.30;;;4.40;99.90;;;;;;5129012;27;20074;-84
2023/04/14 03:10:03;;;;;;;5.80;3.30;;;4.40;99.90;;;;;;5128464;27;20100;-84
2023/04/14 03:12:30;;;;;;;4.20;3.22;;;4.40;99.90;;;;;;5110348;27;20130;-84
2023/04/14 03:14:57;;;;;;;5.82;3.53;;;4.40;99.90;;;;;;5109160;27;20549;-84
2023/04/14 03:17:24;;;;;;;6.65;3.45;;;4.40;99.90;;;;;;5109493;27;20047;-84
2023/04/14 03:19:51;;;;;;;6.20;3.20;;;4.40;99.90;;;;;;5127993;27;20043;-84
2023/04/14 03:22:19;;;;;;;5.93;3.33;;;4.50;99.90;;;;;;5129736;27;20047;-84
2023/04/14 03:24:45;;;;;;;5.25;3.53;;;4.50;99.90;;;;;;5110196;27;20056;-84
2023/04/14 03:27:24;;;;;;;5.78;3.35;;;4.50;99.90;;;;;;5110510;27;20130;-84
2023/04/14 03:29:52;;;;;;;5.80;3.20;;;4.40;99.90;;;;;;5111091;27;20054;-84
2023/04/14 03:32:20;;;;;;;6.57;3.72;;;4.40;99.90;;;;;;5119063;27;20096;-84
2023/04/14 03:34:50;;;;;;;7.88;3.97;;;4.40;99.90;;;;;;5101879;27;20051;-84
2023/04/14 03:37:19;;;;;;;6.18;3.45;;;4.50;99.90;;;;;;5102110;28;20422;-84
2023/04/14 03:39:49;;;;;;;5.93;3.55;;;4.40;99.90;;;;;;5086944;28;20117;-83
2023/04/14 03:42:18;;;;;;;9.38;4.38;;;4.40;99.90;;;;;;5086972;28;20093;-84
2023/04/14 03:44:48;;;;;;;6.72;3.78;;;4.40;99.90;;;;;;5086369;28;20043;-84
2023/04/14 03:47:14;;;;;;;6.22;3.13;;;4.40;99.90;;;;;;5094183;28;20055;-83
2023/04/14 03:49:45;;;;;;;4.25;3.20;;;4.40;99.90;;;;;;5106423;28;20044;-85
2023/04/14 03:52:14;;;;;;;6.63;3.40;;;4.40;99.90;;;;;;5108383;28;20040;-83
2023/04/14 03:54:42;;;;;;;5.78;3.58;;;4.30;99.90;;;;;;5106131;28;20055;-84
2023/04/14 03:57:10;;;;;;;4.50;3.17;;;4.30;99.90;;;;;;5108614;28;20127;-84
2023/04/14 03:59:37;;;;;;;5.78;3.28;;;4.20;99.90;;;;;;5108074;28;20126;-84
2023/04/14 04:02:06;;;;;;;5.40;3.60;;;4.20;99.90;;;;;;5100608;28;20883;-84
2023/04/14 04:04:34;;;;;;;5.15;3.17;;;5.00;99.90;;;;;;5092646;28;20040;-84
2023/04/14 04:07:00;;;;;;;5.05;3.78;;;4.10;99.90;;;;;;5086661;28;20075;-83
2023/04/14 04:09:27;;;;;;;4.85;3.50;;;4.00;99.90;;;;;;5086916;28;20087;-84
2023/04/14 04:11:55;;;;;;;6.32;3.20;;;3.90;99.90;;;;;;5087010;28;20048;-83
2023/04/14 04:14:23;;;;;;;5.40;3.00;;;3.90;99.90;;;;;;5086631;28;20115;-83
2023/04/14 04:16:51;;;;;;;5.07;3.10;;;3.80;99.90;;;;;;5087718;28;20084;-83
2023/04/14 04:19:20;;;;;;;5.13;3.33;;;3.80;99.90;;;;;;5087545;28;20109;-83
2023/04/14 04:21:48;;;;;;;6.90;3.58;;;3.70;99.90;;;;;;5083154;28;20048;-83
2023/04/14 04:24:16;;;;;;;5.18;3.22;;;3.70;99.90;;;;;;5085848;28;20059;-84
2023/04/14 04:26:42;;;;;;;6.38;3.25;;;3.60;99.90;;;;;;5085323;28;20532;-84
2023/04/14 04:29:09;;;;;;;3.65;3.22;;;3.60;99.90;;;;;;5084829;28;20093;-83
2023/04/14 04:31:35;;;;;;;4.07;2.92;;;3.50;99.90;;;;;;5084588;28;20054;-84
2023/04/14 04:34:02;;;;;;;6.72;3.20;;;3.50;99.90;;;;;;5085943;28;20482;-84
2023/04/14 04:36:30;;;;;;;4.72;3.70;;;3.80;99.90;;;;;;5091077;28;20062;-83
2023/04/14 04:38:56;;;;;;;3.75;3.33;;;3.40;99.90;;;;;;5085439;28;20093;-83
2023/04/14 04:41:29;;;;;;;7.38;3.65;;;3.30;99.90;;;;;;5086470;28;20443;-84
2023/04/14 04:43:55;;;;;;;5.43;3.17;;;3.30;99.90;;;;;;5086132;28;20044;-84
2023/04/14 04:46:39;;;;;;;4.82;3.38;;;3.30;99.90;;;;;;5085842;28;20048;-84
2023/04/14 04:49:05;;;;;;;7.45;3.65;;;3.20;99.90;;;;;;5094360;28;20055;-84
2023/04/14 04:51:30;;;;;;;5.25;3.53;;;3.20;99.90;;;;;;5108479;28;20040;-83
2023/04/14 04:53:56;;;;;;;4.75;3.30;;;3.20;99.90;;;;;;5106528;28;20494;-83
2023/04/14 04:56:21;;;;;;;5.05;3.67;;;3.20;99.90;;;;;;5106545;28;20095;-83
2023/04/14 04:58:47;;;;;;;6.43;3.63;;;3.20;99.90;;;;;;5106809;28;20066;-83
2023/04/14 05:01:13;;;;;;;5.65;3.72;;;3.20;99.90;;;;;;5107177;28;20102;-83
2023/04/14 05:03:39;;;;;;;5.25;3.70;;;3.20;99.90;;;;;;5106970;28;20386;-83
2023/04/14 05:06:05;;;;;;;4.85;3.35;;;3.10;99.90;;;;;;5110652;28;20449;-83
2023/04/14 05:08:30;;;;;;;4.78;3.33;;;3.20;99.90;;;;;;5099716;28;20048;-83
2023/04/14 05:10:56;;;;;;;8.98;3.90;;;3.20;99.90;;;;;;5092847;28;20071;-83
2023/04/14 05:13:22;;;;;;;6.30;4.00;;;3.20;99.90;;;;;;5109505;28;20050;-84
2023/04/14 05:15:47;;;;;;;14.15;3.88;;;3.20;99.90;;;;;;5109292;28;20375;-84
2023/04/14 05:18:13;;;;;;;11.45;4.00;;;3.20;99.90;;;;;;5111704;28;20047;-84
2023/04/14 05:20:39;;;;;;;6.95;3.90;;;3.20;99.90;;;;;;5108648;28;20131;-83
2023/04/14 05:23:05;;;;;;;7.85;3.78;;;3.30;99.90;;;;;;5109138;28;20043;-83
2023/04/14 05:25:31;;;;;;;4.95;3.65;;;3.30;99.90;;;;;;5106665;28;20090;-83
2023/04/14 05:27:56;;;;;;;5.95;3.85;;;3.30;99.90;;;;;;5109493;28;20438;-83
2023/04/14 05:30:22;;;;;;;5.53;3.63;;;3.30;99.90;;;;;;5106140;28;20138;-84
2023/04/14 05:32:48;;;;;;;6.28;4.10;;;4.00;99.90;;;;;;5104832;28;20130;-84
2023/04/14 05:35:14;;;;;;;7.53;4.18;;;3.40;99.90;;;;;;5108542;28;20134;-84
2023/04/14 05:37:40;;;;;;;6.55;4.20;;;3.40;99.90;;;;;;5100857;28;20409;-84
2023/04/14 05:40:06;;;;;;;9.10;4.07;;;3.40;99.90;;;;;;5092491;28;20051;-84
2023/04/14 05:42:32;;;;;;;7.40;4.18;;;3.50;99.90;;;;;;5092382;28;20520;-85
2023/04/14 05:44:57;;;;;;;6.00;4.00;;;3.50;99.90;;;;;;5110499;28;20067;-85
2023/04/14 05:47:23;;;;;;;6.88;4.07;;;3.60;99.90;;;;;;5108814;28;20047;-84
2023/04/14 05:49:48;;;;;;;4.60;3.95;;;3.60;99.90;;;;;;5087917;28;20036;-84
2023/04/14 05:52:14;;;;;;;6.45;3.60;;;3.60;99.90;;;;;;5099386;28;20412;-85
2023/04/14 05:54:40;;;;;;;6.30;3.90;;;3.70;99.90;;;;;;5107478;28;20086;-83
2023/04/14 05:57:05;;;;;;;6.13;3.60;;;3.90;99.90;;;;;;5109982;28;20051;-84
2023/04/14 05:59:31;;;;;;;7.00;3.83;;;4.00;99.90;;;;;;5109280;28;20072;-84
2023/04/14 06:01:56;;;;;;;4.40;3.63;;;4.80;99.90;;;;;;5090313;28;20044;-84
2023/04/14 06:04:22;;;;;;;7.35;4.13;;;4.10;99.90;;;;;;5110418;28;20497;-83
2023/04/14 06:06:47;;;;;;;7.68;4.30;;;4.10;99.90;;;;;;5109019;28;20104;-83
2023/04/14 06:09:13;;;;;;;7.43;4.45;;;4.20;99.90;;;;;;5109222;28;20514;-84
2023/04/14 06:11:39;;;;;;;9.23;3.97;;;4.30;99.90;;;;;;5108563;28;20050;-83
2023/04/14 06:14:06;;;;;;;11.00;4.57;;;4.40;99.90;;;;;;5100009;28;20040;-84
2023/04/14 06:16:32;;;;;;;7.43;4.32;;;4.50;99.90;;;;;;5106735;28;20178;-84
2023/04/14 06:18:57;;;;;;;7.03;4.70;;;4.60;99.90;;;;;;5107965;28;20047;-83
2023/04/14 06:21:23;;;;;;;7.03;4.40;;;4.80;99.90;;;;;;5110530;28;20512;-84
2023/04/14 06:23:49;;;;;;;7.50;4.25;;;4.90;99.90;;;;;;5108422;28;20048;-83
2023/04/14 06:26:14;;;;;;;7.07;4.30;;;5.00;99.90;;;;;;5109311;28;20047;-83
2023/04/14 06:28:40;;;;;;;7.10;4.47;;;5.70;99.90;;;;;;5107735;28;20111;-83
2023/04/14 06:31:05;;;;;;;7.60;4.30;;;5.20;99.90;;;;;;5092381;28;20083;-84
2023/04/14 06:33:31;;;;;;;10.00;4.65;;;5.40;99.90;;;;;;5096655;28;20031;-83
2023/04/14 06:35:57;;;;;;;7.50;4.30;;;5.50;99.90;;;;;;5107883;28;20090;-84
2023/04/14 06:38:24;;;;;;;5.72;4.45;;;5.60;99.90;;;;;;5108006;28;20039;-83
2023/04/14 06:40:50;;;;;;;5.20;3.80;;;5.70;99.90;;;;;;5108596;28;20092;-83
2023/04/14 06:43:16;;;;;;;7.53;4.43;;;5.90;99.90;;;;;;5109322;28;20035;-83
2023/04/14 06:45:42;;;;;;;8.02;4.28;;;6.00;99.90;;;;;;5108724;28;20058;-84
2023/04/14 06:48:08;;;;;;;7.10;4.10;;;6.20;99.90;;;;;;5107618;28;20036;-83
2023/04/14 06:50:34;;;;;;;5.95;4.78;;;6.30;99.90;;;;;;5108603;28;20490;-84
2023/04/14 06:52:59;;;;;;;6.22;3.92;;;6.50;99.90;;;;;;5106423;28;20047;-83
2023/04/14 06:55:25;;;;;;;3.92;3.40;;;6.60;99.90;;;;;;5103207;28;20037;-80
2023/04/14 06:57:51;;;;;;;8.32;3.90;;;6.70;99.90;;;;;;5107079;28;20043;-83
2023/04/14 07:00:17;;;;;;;6.72;4.00;;;6.80;99.90;;;;;;5109334;28;20052;-82
2023/04/14 07:02:43;;;;;;;8.82;4.35;;;6.90;99.90;;;;;;5107166;28;20054;-83
2023/04/14 07:05:08;;;;;;;7.78;3.85;;;7.00;99.90;;;;;;5108933;28;20051;-82
2023/04/14 07:07:35;;;;;;;6.18;3.70;;;7.20;99.90;;;;;;5107640;28;20047;-82
2023/04/14 07:10:00;;;;;;;7.55;3.80;;;7.30;99.90;;;;;;5108605;28;20051;-81
2023/04/14 07:12:26;;;;;;;6.05;3.40;;;7.40;99.90;;;;;;5106995;28;20050;-82
2023/04/14 07:14:51;;;;;;;7.28;3.60;;;7.50;99.90;;;;;;5107665;28;20040;-84
2023/04/14 07:17:18;;;;;;;8.95;3.70;;;7.70;99.90;;;;;;5109111;28;20040;-82
2023/04/14 07:19:45;;;;;;;5.68;3.15;;;7.80;99.90;;;;;;5089718;28;20043;-82
2023/04/14 07:22:10;;;;;;;5.07;2.83;;;8.00;99.90;;;;;;5107459;28;20043;-82
2023/04/14 07:24:36;;;;;;;11.13;3.38;;;8.10;99.90;;;;;;5105879;28;20036;-83
2023/04/14 07:27:02;;;;;;;7.35;2.80;;;8.20;99.90;;;;;;5105257;28;20035;-83
2023/04/14 07:29:28;;;;;;;7.78;2.90;;;8.30;99.90;;;;;;5105972;28;20196;-83
2023/04/14 07:31:54;;;;;;;7.80;3.10;;;8.40;99.90;;;;;;5105932;28;20090;-83
2023/04/14 07:34:20;;;;;;;5.55;2.85;;;8.50;99.90;;;;;;5108110;28;20343;-82
2023/04/14 07:36:45;;;;;;;4.50;2.55;;;8.60;99.90;;;;;;5107227;28;20052;-83
2023/04/14 07:39:11;;;;;;;7.25;2.80;;;8.70;99.90;;;;;;5107909;28;20494;-83
2023/04/14 07:41:37;;;;;;;7.32;3.45;;;8.90;99.90;;;;;;5106894;28;20051;-83
2023/04/14 07:44:02;;;;;;;6.63;3.60;;;9.00;99.90;;;;;;5107781;28;20047;-83
2023/04/14 07:46:28;;;;;;;7.55;3.65;;;9.00;99.90;;;;;;5107558;28;20055;-83
2023/04/14 07:48:53;;;;;;;5.70;2.97;;;9.20;99.90;;;;;;5107632;28;20456;-83
2023/04/14 07:51:19;;;;;;;9.73;3.13;;;9.20;99.90;;;;;;5109069;28;20043;-83
2023/04/14 07:53:45;;;;;;;6.70;3.33;;;9.30;99.90;;;;;;5090113;28;20035;-83
2023/04/14 07:56:11;;;;;;;9.55;3.30;;;9.40;99.90;;;;;;5079736;28;20127;-83
2023/04/14 07:58:37;;;;;;;7.20;2.72;;;9.80;99.90;;;;;;5105927;28;20044;-84
2023/04/14 08:01:06;;;;;;;5.47;2.80;;;9.60;99.90;;;;;;5108658;28;20403;-83
2023/04/14 08:03:32;;;;;;;5.25;3.15;;;9.70;99.90;;;;;;5106974;28;20054;-83
2023/04/14 08:05:57;;;;;;;4.45;2.33;;;9.80;99.90;;;;;;5107415;28;20036;-83
2023/04/14 08:08:23;;;;;;;6.82;2.78;;;10.00;99.90;;;;;;5107028;28;20050;-83
2023/04/14 08:10:49;;;;;;;7.75;2.40;;;10.10;99.90;;;;;;5105600;28;20044;-83
2023/04/14 08:13:15;;;;;;;6.32;2.10;;;10.20;99.90;;;;;;5106268;28;20510;-83
2023/04/14 08:15:41;;;;;;;6.35;2.60;;;10.30;99.90;;;;;;5106795;28;20079;-83
2023/04/14 08:18:06;;;;;;;4.10;2.60;;;10.30;99.90;;;;;;5106806;28;20055;-83
2023/04/14 08:20:32;;;;;;;5.95;2.78;;;10.40;99.90;;;;;;5108378;28;20047;-83
2023/04/14 08:22:57;;;;;;;8.48;2.65;;;10.60;99.90;;;;;;5106059;28;20040;-83
2023/04/14 08:25:23;;;;;;;5.28;2.75;;;11.20;99.90;;;;;;5107812;28;20043;-83
2023/04/14 08:27:49;;;;;;;4.80;2.22;;;10.80;99.90;;;;;;5106070;28;20051;-83
2023/04/14 08:30:15;;;;;;;6.82;2.50;;;11.00;99.90;;;;;;5106859;28;20032;-83
2023/04/14 08:32:40;;;;;;;5.50;2.38;;;11.00;99.90;;;;;;5104127;28;20047;-83
2023/04/14 08:35:07;;;;;;;4.90;2.50;;;11.20;99.90;;;;;;5106582;28;20155;-83
2023/04/14 08:37:33;;;;;;;7.20;2.45;;;11.30;99.90;;;;;;5105144;28;20058;-83
2023/04/14 08:39:58;;;;;;;5.65;2.58;;;11.30;99.90;;;;;;5107327;28;20062;-83
2023/04/14 08:42:24;;;;;;;6.65;2.80;;;11.40;99.90;;;;;;5110165;28;20218;-85
2023/04/14 08:44:51;;;;;;;7.75;3.05;;;11.50;99.90;;;;;;5106842;28;20054;-84
2023/04/14 08:47:21;;;;;;;6.25;2.40;;;11.50;99.90;;;;;;5110457;28;20059;-84
2023/04/14 08:50:09;;;;;;;5.13;2.08;;;11.70;99.90;;;;;;5090310;28;20497;-84
2023/04/14 08:52:38;;;;;;;5.00;2.20;;;11.80;99.90;;;;;;5089713;28;20073;-83
2023/04/14 08:55:06;;;;;;;8.05;2.30;;;12.10;99.90;;;;;;5090429;28;20187;-82
2023/04/14 08:57:32;;;;;;;4.95;2.53;;;11.90;99.90;;;;;;5073694;28;20040;-83
2023/04/14 08:59:58;;;;;;;6.90;2.50;;;12.00;99.90;;;;;;5106738;28;20048;-84
2023/04/14 09:02:26;;;;;;;6.30;2.53;;;12.00;99.90;;;;;;5110081;28;20066;-84
2023/04/14 09:04:52;;;;;;;9.13;2.58;;;12.10;99.90;;;;;;5093551;28;20048;-83
2023/04/14 09:07:19;;;;;;;7.50;2.47;;;12.30;99.90;;;;;;5109489;28;20055;-85
2023/04/14 09:09:45;;;;;;;5.22;1.73;;;12.20;99.90;;;;;;5089595;28;20048;-84
2023/04/14 09:12:16;;;;;;;4.55;1.70;;;12.30;99.90;;;;;;5089226;28;20043;-84
2023/04/14 09:14:47;;;;;;;5.97;1.80;;;12.30;99.90;;;;;;5095330;28;20054;-85
2023/04/14 09:17:12;;;;;;;7.22;2.28;;;12.40;99.90;;;;;;5110388;28;20493;-84
2023/04/14 09:19:38;;;;;;;8.77;2.25;;;12.50;99.90;;;;;;5109671;28;20054;-84
2023/04/14 09:22:05;;;;;;;7.55;2.53;;;12.60;99.90;;;;;;5109152;28;20051;-83
2023/04/14 09:24:32;;;;;;;6.10;2.78;;;12.70;99.90;;;;;;5111069;28;20498;-84
2023/04/14 09:27:03;;;;;;;6.43;2.10;;;12.70;99.90;;;;;;5110614;28;20052;-81
2023/04/14 09:29:30;;;;;;;6.03;2.30;;;12.70;99.90;;;;;;5110161;28;20048;-83
2023/04/14 09:31:56;;;;;;;5.65;2.45;;;13.30;99.90;;;;;;5082017;28;20070;-82
2023/04/14 09:34:22;;;;;;;6.80;2.63;;;12.90;99.90;;;;;;5089019;28;20036;-82
2023/04/14 09:37:04;;;;;;;7.40;2.40;;;12.90;99.90;;;;;;5107200;28;20108;-83
2023/04/14 09:39:31;;;;;;;7.10;1.98;;;13.00;94.80;;;;;;5110177;28;20055;-83
2023/04/14 09:41:57;;;;;;;5.57;2.00;;;13.10;99.90;;;;;;5110008;28;20055;-82
2023/04/14 09:44:23;;;;;;;6.30;2.45;;;13.10;99.90;;;;;;5110075;28;20454;-83
2023/04/14 09:46:55;;;;;;;6.13;2.33;;;13.20;99.40;;;;;;5098194;28;20123;-83
2023/04/14 09:49:21;;;;;;;;;;;13.10;97.30;;;;;;5106820;28;20047;-84
2023/04/14 09:51:48;;;;;;;9.02;2.17;;;13.20;97.40;;;;;;5107511;28;19924;-84
2023/04/14 09:54:25;;;;;;;4.13;2.15;;;13.30;98.90;;;;;;5106490;28;20054;-83
2023/04/14 09:56:52;;;;;;;4.80;1.95;;;13.50;98.00;;;;;;5110788;28;21585;-83
2023/04/14 09:59:35;;;;;;;7.68;2.75;;;13.80;98.40;;;;;;5109211;28;20135;-83
2023/04/14 10:02:06;;;;;;;7.90;2.42;;;13.70;95.70;;;;;;5110266;28;20384;-83
2023/04/14 10:04:32;;;;;;;4.93;1.80;;;13.50;95.30;;;;;;5110202;28;20067;-83
2023/04/14 10:06:58;;;;;;;6.88;2.00;;;13.60;95.70;;;;;;5109840;28;20501;-83
2023/04/14 10:09:28;;;;;;;5.30;2.17;;;13.60;96.40;;;;;;5106721;28;20053;-83
2023/04/14 10:12:13;;;;;;;5.50;2.05;;;13.60;95.70;;;;;;5109977;28;20051;-84
2023/04/14 10:14:42;;;;;;;6.80;2.20;;;13.70;92.10;;;;;;5106871;28;20131;-85
2023/04/14 10:17:09;;;;;;;4.78;1.85;;;13.90;95.50;;;;;;5106572;28;20055;-85
2023/04/14 10:19:36;;;;;;;8.27;2.22;;;13.80;94.40;;;;;;5107681;28;20044;-84
2023/04/14 10:22:05;;;;;;;5.05;2.22;;;14.00;95.20;;;;;;5107007;28;20824;-85
2023/04/14 10:24:31;;;;;;;4.97;2.10;;;14.00;95.10;;;;;;5109104;28;20055;-85
2023/04/14 10:27:01;;;;;;;5.20;1.85;;;14.00;94.40;;;;;;5109148;28;20133;-84
2023/04/14 10:29:28;;;;;;;6.10;1.80;;;14.10;93.80;;;;;;5108879;28;20040;-84
2023/04/14 10:32:05;;;;;;;5.30;1.85;;;14.10;92.40;;;;;;5098680;28;20512;-83
2023/04/14 10:34:32;;;;;;;5.18;2.45;;;14.30;92.00;;;;;;5103702;28;20398;-84
2023/04/14 10:37:12;;;;;;;7.25;2.55;;;14.40;92.70;;;;;;5124000;27;20153;-83
2023/04/14 10:39:39;;;;;;;5.13;2.22;;;14.40;86.00;;;;;;5087133;28;20043;-85
2023/04/14 10:42:05;;;;;;;5.53;1.90;;;14.40;91.40;;;;;;5109853;28;20051;-84
2023/04/14 10:44:33;;;;;;;4.28;1.95;;;14.60;91.30;;;;;;5109840;28;20050;-84
2023/04/14 10:47:00;;;;;;;9.07;2.13;;;14.70;91.60;;;;;;5109112;28;20051;-84
2023/04/14 10:49:31;;;;;;;5.28;2.05;;;14.70;88.50;;;;;;5110454;27;20058;-84
2023/04/14 10:51:58;;;;;;;4.82;1.92;;;14.80;86.10;;;;;;5109403;27;20043;-83
2023/04/14 10:54:24;;;;;;;2.83;1.55;;;14.90;87.30;;;;;;5096231;28;20047;-83
2023/04/14 10:57:11;;;;;;;7.13;1.90;;;14.80;85.20;;;;;;5118136;27;20031;-83
2023/04/14 10:59:46;;;;;;;4.10;2.08;;;14.80;78.10;;;;;;5093220;27;20131;-83
2023/04/14 11:02:52;;;;;;;6.25;1.80;;;14.60;80.10;;;;;;5092061;27;20173;-83
2023/04/14 11:05:20;;;;;;;5.22;2.30;;;14.90;71.30;;;;;;5113711;27;20046;-84
2023/04/14 11:07:48;;;;;;;6.70;1.90;;;15.40;84.90;;;;;;5127495;27;20100;-82
2023/04/14 11:10:23;;;;;;;6.82;2.60;;;15.10;85.10;;;;;;5127269;27;20059;-82
2023/04/14 11:13:02;;;;;;;9.93;2.30;;;15.20;83.20;;;;;;5109607;27;20043;-84
2023/04/14 11:15:45;;;;;;;5.10;2.17;;;15.10;78.50;;;;;;5128497;27;20050;-83
2023/04/14 11:18:29;;;;;;;7.32;2.28;;;14.80;79.70;;;;;;5109527;27;20046;-82
2023/04/14 11:21:06;;;;;;;5.68;1.83;;;14.80;73.30;;;;;;5128638;27;20136;-84
2023/04/14 11:23:33;;;;;;;4.65;1.45;;;14.60;75.60;;;;;;5110791;27;20119;-85
2023/04/14 11:25:59;;;;;;;4.38;1.77;;;14.60;79.60;;;;;;5129284;27;20043;-84
2023/04/14 11:28:32;;;;;;;5.32;1.55;;;14.70;76.50;;;;;;5111001;27;20074;-82
2023/04/14 11:31:00;;;;;;;3.95;1.83;;;14.70;74.80;;;;;;5111338;27;20127;-84
2023/04/14 11:33:34;;;;;;;7.30;2.38;;;14.70;80.80;;;;;;5110427;27;20404;-83
2023/04/14 11:36:01;;;;;;;2.88;1.55;;;14.80;71.50;;;;;;5110631;27;20455;-83
2023/04/14 11:38:27;;;;;;;3.17;1.55;;;14.90;76.70;;;;;;5110122;27;20039;-83
2023/04/14 11:40:55;;;;;;;3.65;1.70;;;15.00;78.20;;;;;;5116294;27;20509;-83
2023/04/14 11:43:23;;;;;;;4.07;1.33;;;15.80;75.80;;;;;;5097348;27;20065;-83
2023/04/14 11:45:50;;;;;;;4.55;1.70;;;15.10;72.70;;;;;;5128970;27;20447;-84
2023/04/14 11:48:17;;;;;;;4.53;2.10;;;14.90;70.60;;;;;;5109953;28;20043;-84
2023/04/14 11:50:44;;;;;;;4.13;1.80;;;15.30;69.70;;;;;;5128609;27;20043;-85
2023/04/14 11:53:16;;;;;;;2.60;1.60;;;14.60;70.90;;;;;;5108970;27;20047;-84
2023/04/14 11:55:44;;;;;;;4.68;2.03;;;14.60;70.50;;;;;;5101850;28;20044;-84
2023/04/14 11:58:13;;;;;;;7.25;1.98;;;14.60;72.30;;;;;;5089647;28;20520;-84
2023/04/14 12:00:40;;;;;;;5.10;1.63;;;14.70;73.00;;;;;;5089916;27;20050;-84
2023/04/14 12:03:08;;;;;;;6.25;1.95;;;14.80;72.20;;;;;;5107996;28;20142;-85
2023/04/14 12:05:35;;;;;;;5.47;2.13;;;15.30;70.70;;;;;;5107132;28;20044;-85
2023/04/14 12:08:08;;;;;;;5.57;2.05;;;15.10;71.20;;;;;;5105562;28;20478;-84
2023/04/14 12:10:38;;;;;;;4.03;2.00;;;15.30;70.90;;;;;;5117849;27;20145;-85
2023/04/14 12:13:06;;;;;;;6.20;2.10;;;15.60;70.10;;;;;;5126224;27;20051;-84
2023/04/14 12:15:36;;;;;;;4.03;2.13;;;15.40;70.60;;;;;;5127391;27;20043;-84
2023/04/14 12:18:06;;;;;;;7.18;3.28;;;15.40;69.90;;;;;;5128063;28;20386;-83
2023/04/14 12:20:55;;;;;;;10.35;3.05;;;15.30;68.50;;;;;;5109210;28;20046;-83
2023/04/14 12:23:22;;;;;;;7.57;2.22;;;15.30;69.10;;;;;;5128421;28;20035;-83
2023/04/14 12:25:51;;;;;;;3.17;1.67;;;15.60;70.80;;;;;;5128218;28;20043;-84
2023/04/14 12:28:17;;;;;;;4.55;1.90;;;15.60;67.70;;;;;;5108917;28;20400;-84
2023/04/14 12:30:55;;;;;;;3.50;2.00;;;15.90;67.50;;;;;;5128624;28;20049;-85
2023/04/14 12:33:26;;;;;;;5.47;2.25;;;15.90;65.60;;;;;;5128375;28;20110;-84
2023/04/14 12:35:52;;;;;;;3.63;2.20;;;16.10;65.40;;;;;;5101303;28;20052;-84
2023/04/14 12:38:18;;;;;;;6.75;2.08;;;16.20;67.20;;;;;;5086981;28;20055;-85
2023/04/14 12:40:46;;;;;;;6.28;2.40;;;16.30;67.80;;;;;;5087596;28;20048;-84
2023/04/14 12:43:13;;;;;;;4.32;2.03;;;16.90;66.90;;;;;;5086794;28;20055;-84
2023/04/14 12:45:47;;;;;;;4.93;2.50;;;16.40;66.80;;;;;;5084394;28;20143;-84
2023/04/14 12:48:15;;;;;;;13.27;2.65;;;16.50;62.00;;;;;;5065969;28;20135;-84
2023/04/14 12:50:41;;;;;;;5.40;2.28;;;17.20;64.50;;;;;;5065332;28;20044;-84
2023/04/14 12:53:27;;;;;;;3.55;2.20;;;16.40;64.50;;;;;;5067033;28;20057;-84
2023/04/14 12:56:04;;;;;;;7.65;2.42;;;16.10;60.90;;;;;;5066609;28;20059;-84
2023/04/14 12:58:30;;;;;;;5.13;1.98;;;15.90;61.70;;;;;;5066229;28;20045;-83